»·PEaware :: BTQ291 KSFO-KRNO

BTQ291 :: KSFO-KRNO

FLIGHT INFORMATION

Flight Status: Arrived
Operator: Unknown
More flights by this operator :: More flights under this callsign
Pilot: Armando C. (16967)
Aircraft: PILATUS PC-12 EAGLE
(PC12)
More flights by this aircraft type
Origin: KSFO San Francisco Intl
United States
Destination: KRNO Reno/Tahoe Intl
United States
More flights between these airports :: More routes between these airports
Route: GAPP7 SFO SAC SIER3
File this flight plan on PilotEdge
Remarks:
Altitude:
(Current/Filed)
19,000ft
Speed:
(Current/Filed)
235kts
Departed: 31-Dec-17 03:30 AM
Arrived: 31-Dec-17 04:24 AM
Distance/Time
Traveled:
167nm/0:54
Distance/Time
To Go:
Arrived

Flight Plot

Page will automatically refresh every two minutes.

Flight plan parsing failed; only flown route is shown


Map Options




Map Legend


Flown Route
Filed Route
Departure Airport
Arrival Airport
Navaid (VOR, NDB)
Fix

Horizontal Profiles

Position Reports

Time Latitude Longitude Heading Altitude Ground
Speed
31-Dec-17 03:26 37.611659 -122.390663 72 16ft 0kts
31-Dec-17 03:27 37.611659 -122.390663 72 16ft 0kts
31-Dec-17 03:28 37.611133 -122.390876 174 16ft 4kts
31-Dec-17 03:29 37.611252 -122.388797 26 16ft 8kts
31-Dec-17 03:30 37.611286 -122.386294 118 16ft 7kts
31-Dec-17 03:31 37.609894 -122.384028 177 16ft 6kts
31-Dec-17 03:32 37.609396 -122.383645 117 16ft 0kts
31-Dec-17 03:33 37.609396 -122.383645 117 16ft 0kts
31-Dec-17 03:34 37.609396 -122.383645 117 16ft 0kts
31-Dec-17 03:35 37.609273 -122.383348 117 16ft 13kts
31-Dec-17 03:36 37.620823 -122.374608 23 511ft 112kts
31-Dec-17 03:37 37.660482 -122.368195 3 2282ft 157kts
31-Dec-17 03:38 37.700308 -122.346717 57 3802ft 178kts
31-Dec-17 03:39 37.727020 -122.290249 59 5018ft 193kts
31-Dec-17 03:40 37.762173 -122.237393 44 6221ft 201kts
31-Dec-17 03:41 37.805936 -122.190645 39 7420ft 210kts
31-Dec-17 03:42 37.852762 -122.143743 37 8623ft 217kts
31-Dec-17 03:43 37.900791 -122.096045 37 9825ft 221kts
31-Dec-17 03:44 37.949615 -122.047537 37 11029ft 223kts
31-Dec-17 03:45 37.998798 -121.998587 36 12229ft 226kts
31-Dec-17 03:46 38.048499 -121.949033 36 13430ft 228kts
31-Dec-17 03:47 38.098637 -121.898953 36 14630ft 230kts
31-Dec-17 03:48 38.149769 -121.847567 36 15835ft 235kts
31-Dec-17 03:49 38.200738 -121.796640 35 17029ft 231kts
31-Dec-17 03:50 38.250969 -121.746259 35 18224ft 228kts
31-Dec-17 03:51 38.300642 -121.696337 35 19419ft 226kts
31-Dec-17 03:52 38.349792 -121.646833 35 20614ft 224kts
31-Dec-17 03:53 38.398433 -121.597731 34 21706ft 227kts
31-Dec-17 03:54 38.450100 -121.542119 40 21777ft 255kts
31-Dec-17 03:55 38.501817 -121.477712 42 21776ft 259kts
31-Dec-17 03:56 38.552972 -121.412648 42 21775ft 259kts
31-Dec-17 03:57 38.598356 -121.354686 42 21476ft 260kts
31-Dec-17 03:58 38.635103 -121.307641 42 20901ft 260kts
31-Dec-17 03:59 38.686085 -121.242240 42 20103ft 259kts
31-Dec-17 04:00 38.735644 -121.175296 46 19304ft 259kts
31-Dec-17 04:01 38.783610 -121.106504 46 18505ft 258kts
31-Dec-17 04:02 38.831591 -121.037962 46 17706ft 258kts
31-Dec-17 04:03 38.879484 -120.969583 46 16907ft 257kts
31-Dec-17 04:04 38.927379 -120.901097 46 16129ft 257kts
31-Dec-17 04:05 38.974979 -120.832888 46 16028ft 257kts
31-Dec-17 04:06 39.022722 -120.764334 46 16041ft 257kts
31-Dec-17 04:07 39.070523 -120.695542 46 16062ft 257kts
31-Dec-17 04:08 39.118109 -120.626909 46 16096ft 257kts
31-Dec-17 04:09 39.165672 -120.558162 46 16106ft 257kts
31-Dec-17 04:10 39.213179 -120.489346 46 16097ft 257kts
31-Dec-17 04:11 39.260653 -120.420408 46 16112ft 257kts
31-Dec-17 04:12 39.308114 -120.351342 46 16116ft 257kts
31-Dec-17 04:13 39.355558 -120.282142 46 16100ft 257kts
31-Dec-17 04:14 39.402810 -120.213040 46 16065ft 256kts
31-Dec-17 04:15 39.453610 -120.149043 29 15772ft 256kts
31-Dec-17 04:16 39.515618 -120.103945 25 14974ft 256kts
31-Dec-17 04:17 39.577916 -120.059016 26 14175ft 256kts
31-Dec-17 04:18 39.640208 -120.013312 26 13273ft 257kts
31-Dec-17 04:19 39.695978 -119.971988 25 12253ft 205kts
31-Dec-17 04:20 39.738253 -119.930593 76 11223ft 191kts
31-Dec-17 04:21 39.737404 -119.863329 95 10287ft 184kts
31-Dec-17 04:22 39.737108 -119.798501 93 9286ft 174kts
31-Dec-17 04:23 39.716008 -119.757505 189 8296ft 164kts
31-Dec-17 04:24 39.671568 -119.767629 175 7318ft 159kts
31-Dec-17 04:25 39.630190 -119.766340 179 6838ft 124kts
31-Dec-17 04:26 39.601067 -119.766501 178 6349ft 96kts
31-Dec-17 04:27 39.574238 -119.766560 179 5838ft 97kts
31-Dec-17 04:28 39.547018 -119.766644 180 5345ft 97kts
31-Dec-17 04:29 39.520893 -119.766669 180 4743ft 90kts
31-Dec-17 04:30 39.503764 -119.766720 165 4418ft 10kts
31-Dec-17 04:31 39.507017 -119.765740 7 4418ft 9kts
31-Dec-17 04:32 39.507094 -119.764570 187 4418ft 0kts
31-Dec-17 04:33 39.507094 -119.764570 187 4418ft 0kts

Navigation Log

Ident Type
Flight plan parsing failed, navigation log unavailable